DAL1294 KRDU-KJFK
Flight info
| Callsign | DAL1294 |
|---|---|
| Flight time | 1h 7m |
| Altitude | 33000 |
| Route | HURIC4 FEBEL GUILD SAWED Q108 SIE CAMRN5 |
| Aircraft | B738/M-SDE2E3FGHIRWXY/LB1 |
Departure
| Time | 2026-05-06 23:27 |
|---|---|
| Airport | Raleigh-Durham International Airport (KRDU) |
Arrival
| Time | 2026-05-07 00:34 |
|---|---|
| Airport | John F. Kennedy International Airport (KJFK) |
| Time | Latitude | Longitude | Altitude | Speed | Heading |
|---|---|---|---|---|---|
| 2026-05-06 22:50 | 35.87591 | -78.79489 | 384 ft | 0 kts | 328° |
| 2026-05-06 23:12 | 35.87583 | -78.79483 | 384 ft | 1 kts | 328° |
| 2026-05-06 23:12 | 35.87575 | -78.79477 | 384 ft | 1 kts | 328° |
| 2026-05-06 23:12 | 35.87567 | -78.79471 | 384 ft | 1 kts | 328° |
| 2026-05-06 23:13 | 35.87560 | -78.79465 | 384 ft | 1 kts | 321° |
| 2026-05-06 23:13 | 35.87556 | -78.79461 | 384 ft | 1 kts | 294° |
| 2026-05-06 23:13 | 35.87554 | -78.79455 | 384 ft | 1 kts | 263° |
| 2026-05-06 23:13 | 35.87555 | -78.79448 | 385 ft | 1 kts | 219° |
| 2026-05-06 23:14 | 35.87559 | -78.79445 | 385 ft | 0 kts | 208° |
| 2026-05-06 23:16 | 35.87558 | -78.79446 | 385 ft | 2 kts | 208° |
| 2026-05-06 23:16 | 35.87513 | -78.79496 | 383 ft | 12 kts | 225° |
| 2026-05-06 23:16 | 35.87445 | -78.79579 | 380 ft | 15 kts | 224° |
| 2026-05-06 23:17 | 35.87420 | -78.79673 | 378 ft | 13 kts | 310° |
| 2026-05-06 23:17 | 35.87492 | -78.79760 | 376 ft | 14 kts | 316° |
| 2026-05-06 23:17 | 35.87572 | -78.79747 | 376 ft | 14 kts | 47° |
| 2026-05-06 23:17 | 35.87644 | -78.79658 | 379 ft | 16 kts | 45° |
| 2026-05-06 23:18 | 35.87729 | -78.79553 | 382 ft | 19 kts | 44° |
| 2026-05-06 23:18 | 35.87819 | -78.79442 | 386 ft | 18 kts | 45° |
| 2026-05-06 23:18 | 35.87910 | -78.79329 | 389 ft | 19 kts | 45° |
| 2026-05-06 23:18 | 35.88010 | -78.79205 | 390 ft | 21 kts | 45° |
| 2026-05-06 23:19 | 35.88110 | -78.79081 | 392 ft | 20 kts | 47° |
| 2026-05-06 23:19 | 35.88205 | -78.78960 | 391 ft | 21 kts | 45° |
| 2026-05-06 23:19 | 35.88344 | -78.78788 | 393 ft | 34 kts | 45° |
| 2026-05-06 23:19 | 35.88508 | -78.78585 | 401 ft | 32 kts | 45° |
| 2026-05-06 23:20 | 35.88660 | -78.78399 | 404 ft | 30 kts | 45° |
| 2026-05-06 23:20 | 35.88793 | -78.78234 | 405 ft | 24 kts | 45° |
| 2026-05-06 23:20 | 35.88906 | -78.78094 | 405 ft | 23 kts | 45° |
| 2026-05-06 23:20 | 35.88981 | -78.77976 | 406 ft | 13 kts | 71° |
| 2026-05-06 23:21 | 35.89031 | -78.77860 | 409 ft | 16 kts | 47° |
| 2026-05-06 23:21 | 35.89109 | -78.77764 | 409 ft | 16 kts | 45° |
| 2026-05-06 23:21 | 35.89184 | -78.77670 | 414 ft | 15 kts | 45° |
| 2026-05-06 23:21 | 35.89225 | -78.77640 | 408 ft | 4 kts | 347° |
| 2026-05-06 23:22 | 35.89249 | -78.77663 | 413 ft | 2 kts | 317° |
| 2026-05-06 23:22 | 35.89264 | -78.77681 | 409 ft | 7 kts | 315° |
| 2026-05-06 23:22 | 35.89300 | -78.77725 | 418 ft | 3 kts | 315° |
| 2026-05-06 23:22 | 35.89301 | -78.77726 | 418 ft | 0 kts | 315° |
| 2026-05-06 23:25 | 35.89302 | -78.77727 | 418 ft | 2 kts | 316° |
| 2026-05-06 23:25 | 35.89327 | -78.77758 | 419 ft | 9 kts | 316° |
| 2026-05-06 23:26 | 35.89357 | -78.77835 | 414 ft | 13 kts | 251° |
| 2026-05-06 23:26 | 35.89218 | -78.78013 | 410 ft | 59 kts | 224° |
| 2026-05-06 23:26 | 35.88744 | -78.78595 | 404 ft | 128 kts | 225° |
| 2026-05-06 23:26 | 35.87991 | -78.79528 | 465 ft | 176 kts | 223° |
| 2026-05-06 23:27 | 35.87039 | -78.80635 | 867 ft | 200 kts | 222° |
| 2026-05-06 23:27 | 35.85959 | -78.81816 | 1341 ft | 211 kts | 218° |
| 2026-05-06 23:27 | 35.84818 | -78.83145 | 1500 ft | 240 kts | 223° |
| 2026-05-06 23:27 | 35.83621 | -78.84655 | 1680 ft | 246 kts | 224° |
| 2026-05-06 23:28 | 35.82445 | -78.86176 | 1821 ft | 241 kts | 224° |
| 2026-05-06 23:28 | 35.81293 | -78.87664 | 2011 ft | 239 kts | 224° |
| 2026-05-06 23:28 | 35.80145 | -78.89149 | 2301 ft | 240 kts | 225° |
| 2026-05-06 23:28 | 35.78983 | -78.90628 | 3103 ft | 242 kts | 225° |
| 2026-05-06 23:29 | 35.77605 | -78.91821 | 3894 ft | 246 kts | 201° |
| 2026-05-06 23:29 | 35.75891 | -78.92036 | 4711 ft | 256 kts | 174° |
| 2026-05-06 23:29 | 35.74247 | -78.91190 | 5478 ft | 269 kts | 147° |
| 2026-05-06 23:29 | 35.72920 | -78.89481 | 6189 ft | 283 kts | 133° |
| 2026-05-06 23:30 | 35.71788 | -78.87444 | 6847 ft | 296 kts | 117° |
| 2026-05-06 23:30 | 35.71490 | -78.84911 | 7597 ft | 307 kts | 83° |
| 2026-05-06 23:30 | 35.72218 | -78.82441 | 8364 ft | 311 kts | 63° |
| 2026-05-06 23:30 | 35.73196 | -78.80035 | 9047 ft | 317 kts | 63° |
| 2026-05-06 23:31 | 35.74187 | -78.77590 | 9763 ft | 322 kts | 63° |
| 2026-05-06 23:31 | 35.75187 | -78.75098 | 10386 ft | 329 kts | 63° |
| 2026-05-06 23:31 | 35.76208 | -78.72525 | 10905 ft | 338 kts | 63° |
| 2026-05-06 23:31 | 35.77241 | -78.69897 | 11555 ft | 342 kts | 63° |
| 2026-05-06 23:32 | 35.78259 | -78.67292 | 11945 ft | 343 kts | 63° |
| 2026-05-06 23:32 | 35.79289 | -78.64644 | 12000 ft | 343 kts | 63° |
| 2026-05-06 23:32 | 35.80328 | -78.61967 | 12285 ft | 350 kts | 63° |
| 2026-05-06 23:32 | 35.81375 | -78.59261 | 13111 ft | 349 kts | 63° |
| 2026-05-06 23:33 | 35.82411 | -78.56555 | 13951 ft | 349 kts | 63° |
| 2026-05-06 23:33 | 35.83447 | -78.53831 | 14640 ft | 353 kts | 63° |
| 2026-05-06 23:33 | 35.84492 | -78.51075 | 15316 ft | 357 kts | 63° |
| 2026-05-06 23:33 | 35.85548 | -78.48287 | 16014 ft | 361 kts | 63° |
| 2026-05-06 23:34 | 35.86618 | -78.45462 | 16707 ft | 365 kts | 63° |
| 2026-05-06 23:34 | 35.87683 | -78.42649 | 17383 ft | 369 kts | 63° |
| 2026-05-06 23:34 | 35.88773 | -78.39768 | 18063 ft | 373 kts | 62° |
| 2026-05-06 23:34 | 35.89875 | -78.36851 | 18663 ft | 377 kts | 62° |
| 2026-05-06 23:35 | 35.90990 | -78.33900 | 19229 ft | 382 kts | 62° |
| 2026-05-06 23:35 | 35.92119 | -78.30909 | 19809 ft | 386 kts | 62° |
| 2026-05-06 23:35 | 35.93256 | -78.27893 | 20388 ft | 390 kts | 62° |
| 2026-05-06 23:35 | 35.94404 | -78.24846 | 20948 ft | 394 kts | 62° |
| 2026-05-06 23:36 | 35.95564 | -78.21764 | 21498 ft | 398 kts | 62° |
| 2026-05-06 23:36 | 35.96735 | -78.18650 | 22064 ft | 402 kts | 62° |
| 2026-05-06 23:36 | 35.97917 | -78.15503 | 22624 ft | 406 kts | 62° |
| 2026-05-06 23:36 | 35.99091 | -78.12373 | 23154 ft | 409 kts | 62° |
| 2026-05-06 23:37 | 36.00292 | -78.09169 | 23673 ft | 413 kts | 62° |
| 2026-05-06 23:37 | 36.01502 | -78.05937 | 24110 ft | 416 kts | 62° |
| 2026-05-06 23:37 | 36.02719 | -78.02682 | 24589 ft | 418 kts | 62° |
| 2026-05-06 23:37 | 36.03941 | -77.99411 | 25059 ft | 421 kts | 62° |
| 2026-05-06 23:38 | 36.05171 | -77.96117 | 25499 ft | 424 kts | 62° |
| 2026-05-06 23:38 | 36.06410 | -77.92794 | 25933 ft | 427 kts | 62° |
| 2026-05-06 23:38 | 36.07654 | -77.89455 | 26376 ft | 430 kts | 62° |
| 2026-05-06 23:38 | 36.08907 | -77.86086 | 26800 ft | 433 kts | 62° |
| 2026-05-06 23:39 | 36.10153 | -77.82735 | 27210 ft | 436 kts | 62° |
| 2026-05-06 23:39 | 36.11421 | -77.79319 | 27617 ft | 439 kts | 62° |
| 2026-05-06 23:39 | 36.12698 | -77.75877 | 28033 ft | 442 kts | 62° |
| 2026-05-06 23:39 | 36.13980 | -77.72416 | 28426 ft | 445 kts | 62° |
| 2026-05-06 23:40 | 36.15272 | -77.68926 | 28808 ft | 448 kts | 62° |
| 2026-05-06 23:40 | 36.16572 | -77.65408 | 29196 ft | 451 kts | 62° |
| 2026-05-06 23:40 | 36.17878 | -77.61870 | 29577 ft | 453 kts | 62° |
| 2026-05-06 23:40 | 36.19193 | -77.58304 | 29937 ft | 456 kts | 62° |
| 2026-05-06 23:41 | 36.20498 | -77.54762 | 30237 ft | 460 kts | 62° |
| 2026-05-06 23:41 | 36.21844 | -77.51105 | 30522 ft | 463 kts | 61° |
| 2026-05-06 23:41 | 36.23164 | -77.47513 | 30807 ft | 466 kts | 61° |
| 2026-05-06 23:41 | 36.24507 | -77.43854 | 31070 ft | 469 kts | 61° |
| 2026-05-06 23:42 | 36.25862 | -77.40157 | 31328 ft | 472 kts | 61° |
| 2026-05-06 23:42 | 36.27220 | -77.36449 | 31597 ft | 475 kts | 60° |
| 2026-05-06 23:42 | 36.28589 | -77.32708 | 31867 ft | 477 kts | 60° |
| 2026-05-06 23:42 | 36.29975 | -77.28965 | 32105 ft | 479 kts | 57° |
| 2026-05-06 23:43 | 36.31677 | -77.25439 | 32326 ft | 474 kts | 47° |
| 2026-05-06 23:43 | 36.33731 | -77.22275 | 32592 ft | 467 kts | 38° |
| 2026-05-06 23:43 | 36.36077 | -77.19538 | 32875 ft | 463 kts | 33° |
| 2026-05-06 23:44 | 36.40955 | -77.14198 | 32941 ft | 473 kts | 32° |
| 2026-05-06 23:44 | 36.45919 | -77.08756 | 32949 ft | 486 kts | 33° |
| 2026-05-06 23:45 | 36.51009 | -77.03084 | 32946 ft | 496 kts | 33° |
| 2026-05-06 23:45 | 36.56182 | -76.97264 | 32946 ft | 505 kts | 34° |
| 2026-05-06 23:46 | 36.61421 | -76.91350 | 32937 ft | 511 kts | 34° |
| 2026-05-06 23:46 | 36.66649 | -76.85436 | 32941 ft | 512 kts | 34° |
| 2026-05-06 23:47 | 36.71924 | -76.79464 | 32931 ft | 512 kts | 34° |
| 2026-05-06 23:47 | 36.77199 | -76.73484 | 32938 ft | 512 kts | 34° |
| 2026-05-06 23:48 | 36.82461 | -76.67509 | 32941 ft | 511 kts | 33° |
| 2026-05-06 23:48 | 36.87719 | -76.61528 | 32931 ft | 511 kts | 34° |
| 2026-05-06 23:49 | 36.92934 | -76.55584 | 32925 ft | 511 kts | 34° |
| 2026-05-06 23:49 | 36.98174 | -76.49600 | 32917 ft | 510 kts | 34° |
| 2026-05-06 23:50 | 37.03413 | -76.43605 | 32899 ft | 510 kts | 34° |
| 2026-05-06 23:50 | 37.11260 | -76.34603 | 32893 ft | 510 kts | 34° |
| 2026-05-06 23:51 | 37.16453 | -76.28632 | 32903 ft | 510 kts | 34° |
| 2026-05-06 23:51 | 37.21680 | -76.22610 | 32901 ft | 510 kts | 34° |
| 2026-05-06 23:52 | 37.26903 | -76.16580 | 32914 ft | 511 kts | 34° |
| 2026-05-06 23:52 | 37.32131 | -76.10533 | 32915 ft | 511 kts | 34° |
| 2026-05-06 23:53 | 37.37360 | -76.04472 | 32923 ft | 511 kts | 34° |
| 2026-05-06 23:53 | 37.42558 | -75.98435 | 32914 ft | 512 kts | 35° |
| 2026-05-06 23:54 | 37.47791 | -75.92344 | 32922 ft | 513 kts | 35° |
| 2026-05-06 23:54 | 37.53059 | -75.86281 | 32915 ft | 510 kts | 31° |
| 2026-05-06 23:55 | 37.58896 | -75.81466 | 32928 ft | 499 kts | 21° |
| 2026-05-06 23:55 | 37.64915 | -75.77100 | 32909 ft | 500 kts | 21° |
| 2026-05-06 23:56 | 37.70926 | -75.72642 | 32916 ft | 502 kts | 22° |
| 2026-05-06 23:56 | 37.76897 | -75.68131 | 32909 ft | 504 kts | 22° |
| 2026-05-06 23:57 | 37.82945 | -75.63555 | 32919 ft | 509 kts | 21° |
| 2026-05-06 23:57 | 37.88959 | -75.58652 | 32924 ft | 519 kts | 26° |
| 2026-05-06 23:58 | 37.94902 | -75.53386 | 32924 ft | 522 kts | 26° |
| 2026-05-06 23:58 | 38.00834 | -75.48178 | 32921 ft | 523 kts | 25° |
| 2026-05-06 23:59 | 38.06845 | -75.42983 | 32918 ft | 522 kts | 24° |
| 2026-05-06 23:59 | 38.12948 | -75.38012 | 32917 ft | 520 kts | 23° |
| 2026-05-07 00:00 | 38.19051 | -75.33072 | 32907 ft | 520 kts | 23° |
| 2026-05-07 00:00 | 38.25251 | -75.28701 | 32898 ft | 503 kts | 11° |
| 2026-05-07 00:01 | 38.28530 | -75.27307 | 32908 ft | 490 kts | 2° |
| 2026-05-07 00:01 | 38.31833 | -75.26534 | 32913 ft | 480 kts | 357° |
| 2026-05-07 00:01 | 38.38442 | -75.25307 | 32908 ft | 480 kts | 357° |
| 2026-05-07 00:02 | 38.45042 | -75.23984 | 32908 ft | 481 kts | 358° |
| 2026-05-07 00:02 | 38.51648 | -75.22591 | 32896 ft | 481 kts | 358° |
| 2026-05-07 00:03 | 38.58203 | -75.21186 | 32892 ft | 481 kts | 358° |
| 2026-05-07 00:03 | 38.64799 | -75.19777 | 32891 ft | 480 kts | 357° |
| 2026-05-07 00:04 | 38.68094 | -75.18819 | 32885 ft | 494 kts | 6° |
| 2026-05-07 00:04 | 38.71338 | -75.17178 | 32901 ft | 509 kts | 15° |
| 2026-05-07 00:04 | 38.74439 | -75.14866 | 32886 ft | 525 kts | 25° |
| 2026-05-07 00:04 | 38.77384 | -75.12057 | 32913 ft | 529 kts | 28° |
| 2026-05-07 00:05 | 38.83168 | -75.06173 | 32907 ft | 531 kts | 28° |
| 2026-05-07 00:05 | 38.88937 | -75.00360 | 32906 ft | 531 kts | 27° |
| 2026-05-07 00:06 | 38.94793 | -74.94589 | 32896 ft | 527 kts | 27° |
| 2026-05-07 00:06 | 39.00555 | -74.88924 | 32890 ft | 518 kts | 27° |
| 2026-05-07 00:07 | 39.06268 | -74.83298 | 32672 ft | 520 kts | 27° |
| 2026-05-07 00:07 | 39.09149 | -74.80458 | 31969 ft | 521 kts | 27° |
| 2026-05-07 00:07 | 39.11993 | -74.77563 | 31279 ft | 522 kts | 30° |
| 2026-05-07 00:08 | 39.14792 | -74.74566 | 30529 ft | 524 kts | 31° |
| 2026-05-07 00:08 | 39.17539 | -74.71555 | 29726 ft | 526 kts | 32° |
| 2026-05-07 00:08 | 39.20319 | -74.68493 | 28780 ft | 527 kts | 32° |
| 2026-05-07 00:08 | 39.23109 | -74.65430 | 27884 ft | 526 kts | 32° |
| 2026-05-07 00:09 | 39.25900 | -74.62383 | 26966 ft | 526 kts | 32° |
| 2026-05-07 00:09 | 39.28695 | -74.59345 | 26023 ft | 526 kts | 32° |
| 2026-05-07 00:09 | 39.31502 | -74.56300 | 25058 ft | 527 kts | 32° |
| 2026-05-07 00:09 | 39.34302 | -74.53259 | 24313 ft | 524 kts | 32° |
| 2026-05-07 00:10 | 39.37073 | -74.50241 | 23605 ft | 519 kts | 32° |
| 2026-05-07 00:10 | 39.39823 | -74.47244 | 22799 ft | 514 kts | 33° |
| 2026-05-07 00:10 | 39.42541 | -74.44279 | 22064 ft | 508 kts | 33° |
| 2026-05-07 00:10 | 39.45180 | -74.41396 | 21402 ft | 500 kts | 33° |
| 2026-05-07 00:11 | 39.47818 | -74.38513 | 20700 ft | 494 kts | 33° |
| 2026-05-07 00:11 | 39.50429 | -74.35659 | 20013 ft | 488 kts | 33° |
| 2026-05-07 00:11 | 39.53008 | -74.32839 | 19340 ft | 483 kts | 33° |
| 2026-05-07 00:11 | 39.55558 | -74.30048 | 18664 ft | 477 kts | 34° |
| 2026-05-07 00:12 | 39.58072 | -74.27290 | 18278 ft | 472 kts | 34° |
| 2026-05-07 00:12 | 39.60572 | -74.24546 | 18142 ft | 464 kts | 34° |
| 2026-05-07 00:12 | 39.62985 | -74.21888 | 17991 ft | 448 kts | 34° |
| 2026-05-07 00:12 | 39.65311 | -74.19325 | 17881 ft | 431 kts | 33° |
| 2026-05-07 00:13 | 39.67518 | -74.16891 | 17867 ft | 413 kts | 33° |
| 2026-05-07 00:13 | 39.69669 | -74.14521 | 17857 ft | 397 kts | 33° |
| 2026-05-07 00:13 | 39.71727 | -74.12247 | 17856 ft | 382 kts | 33° |
| 2026-05-07 00:13 | 39.73711 | -74.10055 | 17860 ft | 367 kts | 32° |
| 2026-05-07 00:14 | 39.75620 | -74.07947 | 17848 ft | 354 kts | 32° |
| 2026-05-07 00:14 | 39.77461 | -74.05916 | 17854 ft | 340 kts | 32° |
| 2026-05-07 00:14 | 39.79233 | -74.03959 | 17836 ft | 328 kts | 31° |
| 2026-05-07 00:14 | 39.80935 | -74.02076 | 17847 ft | 315 kts | 31° |
| 2026-05-07 00:15 | 39.82544 | -74.00291 | 17848 ft | 303 kts | 31° |
| 2026-05-07 00:15 | 39.84143 | -73.98545 | 17845 ft | 297 kts | 26° |
| 2026-05-07 00:15 | 39.85917 | -73.97104 | 17897 ft | 309 kts | 18° |
| 2026-05-07 00:15 | 39.87898 | -73.95760 | 17911 ft | 332 kts | 17° |
| 2026-05-07 00:16 | 39.90013 | -73.94352 | 17654 ft | 347 kts | 18° |
| 2026-05-07 00:16 | 39.92170 | -73.92877 | 16891 ft | 355 kts | 19° |
| 2026-05-07 00:16 | 39.94391 | -73.91329 | 15791 ft | 370 kts | 20° |
| 2026-05-07 00:16 | 39.96690 | -73.89703 | 14838 ft | 379 kts | 21° |
| 2026-05-07 00:17 | 39.98961 | -73.88028 | 14410 ft | 373 kts | 28° |
| 2026-05-07 00:17 | 40.00778 | -73.85731 | 14265 ft | 366 kts | 50° |
| 2026-05-07 00:17 | 40.02138 | -73.82960 | 13927 ft | 360 kts | 56° |
| 2026-05-07 00:17 | 40.03389 | -73.80149 | 13421 ft | 358 kts | 57° |
| 2026-05-07 00:18 | 40.04629 | -73.77327 | 12685 ft | 361 kts | 57° |
| 2026-05-07 00:18 | 40.06104 | -73.74704 | 11907 ft | 357 kts | 38° |
| 2026-05-07 00:18 | 40.08051 | -73.72725 | 11208 ft | 353 kts | 29° |
| 2026-05-07 00:18 | 40.10090 | -73.70929 | 10490 ft | 354 kts | 28° |
| 2026-05-07 00:19 | 40.12146 | -73.69173 | 9873 ft | 351 kts | 27° |
| 2026-05-07 00:19 | 40.14184 | -73.67447 | 9244 ft | 348 kts | 28° |
| 2026-05-07 00:19 | 40.16179 | -73.65770 | 8688 ft | 342 kts | 27° |
| 2026-05-07 00:19 | 40.18132 | -73.64132 | 8451 ft | 326 kts | 27° |
| 2026-05-07 00:20 | 40.19994 | -73.62565 | 8304 ft | 310 kts | 27° |
| 2026-05-07 00:20 | 40.21778 | -73.61058 | 8066 ft | 302 kts | 27° |
| 2026-05-07 00:20 | 40.23522 | -73.59583 | 7865 ft | 298 kts | 27° |
| 2026-05-07 00:20 | 40.25285 | -73.58100 | 7625 ft | 303 kts | 27° |
| 2026-05-07 00:21 | 40.27075 | -73.56606 | 7381 ft | 306 kts | 27° |
| 2026-05-07 00:21 | 40.28864 | -73.55118 | 7129 ft | 303 kts | 27° |
| 2026-05-07 00:21 | 40.30636 | -73.53648 | 6863 ft | 301 kts | 27° |
| 2026-05-07 00:21 | 40.32413 | -73.52218 | 6388 ft | 297 kts | 22° |
| 2026-05-07 00:22 | 40.34292 | -73.51373 | 5978 ft | 284 kts | 9° |
| 2026-05-07 00:22 | 40.36194 | -73.50763 | 5609 ft | 283 kts | 7° |
| 2026-05-07 00:22 | 40.38115 | -73.50181 | 5232 ft | 284 kts | 7° |
| 2026-05-07 00:22 | 40.40041 | -73.49604 | 4859 ft | 283 kts | 7° |
| 2026-05-07 00:23 | 40.41959 | -73.49036 | 4485 ft | 283 kts | 7° |
| 2026-05-07 00:23 | 40.43878 | -73.48471 | 4111 ft | 282 kts | 7° |
| 2026-05-07 00:23 | 40.45783 | -73.47913 | 4020 ft | 282 kts | 7° |
| 2026-05-07 00:23 | 40.47701 | -73.47368 | 3998 ft | 279 kts | 3° |
| 2026-05-07 00:24 | 40.49587 | -73.47371 | 4009 ft | 269 kts | 349° |
| 2026-05-07 00:24 | 40.51449 | -73.47621 | 4000 ft | 269 kts | 348° |
| 2026-05-07 00:24 | 40.53296 | -73.47897 | 3994 ft | 263 kts | 347° |
| 2026-05-07 00:24 | 40.55072 | -73.48158 | 3981 ft | 251 kts | 347° |
| 2026-05-07 00:25 | 40.56763 | -73.48399 | 3984 ft | 246 kts | 347° |
| 2026-05-07 00:25 | 40.58467 | -73.48643 | 4003 ft | 247 kts | 347° |
| 2026-05-07 00:25 | 40.60183 | -73.48893 | 4012 ft | 249 kts | 347° |
| 2026-05-07 00:25 | 40.61913 | -73.49148 | 4011 ft | 250 kts | 347° |
| 2026-05-07 00:26 | 40.63618 | -73.49394 | 3963 ft | 242 kts | 347° |
| 2026-05-07 00:26 | 40.65269 | -73.49620 | 3706 ft | 234 kts | 347° |
| 2026-05-07 00:26 | 40.66859 | -73.49834 | 3452 ft | 226 kts | 347° |
| 2026-05-07 00:26 | 40.68407 | -73.50041 | 3111 ft | 224 kts | 347° |
| 2026-05-07 00:27 | 40.69934 | -73.50245 | 2770 ft | 222 kts | 347° |
| 2026-05-07 00:27 | 40.71471 | -73.50452 | 2398 ft | 222 kts | 347° |
| 2026-05-07 00:27 | 40.73004 | -73.50693 | 2055 ft | 219 kts | 339° |
| 2026-05-07 00:27 | 40.74256 | -73.51664 | 2008 ft | 205 kts | 305° |
| 2026-05-07 00:28 | 40.75082 | -73.53165 | 2008 ft | 201 kts | 298° |
| 2026-05-07 00:28 | 40.75847 | -73.54689 | 1998 ft | 199 kts | 297° |
| 2026-05-07 00:28 | 40.76599 | -73.56199 | 1987 ft | 192 kts | 297° |
| 2026-05-07 00:28 | 40.77310 | -73.57607 | 1976 ft | 177 kts | 297° |
| 2026-05-07 00:29 | 40.77978 | -73.58910 | 1991 ft | 169 kts | 297° |
| 2026-05-07 00:29 | 40.78298 | -73.60295 | 1991 ft | 158 kts | 261° |
| 2026-05-07 00:30 | 40.76542 | -73.64030 | 2024 ft | 160 kts | 237° |
| 2026-05-07 00:30 | 40.75911 | -73.65220 | 2007 ft | 158 kts | 237° |
| 2026-05-07 00:30 | 40.75286 | -73.66415 | 1993 ft | 158 kts | 236° |
| 2026-05-07 00:30 | 40.74500 | -73.67395 | 1995 ft | 155 kts | 222° |
| 2026-05-07 00:31 | 40.73647 | -73.68245 | 2004 ft | 156 kts | 220° |
| 2026-05-07 00:31 | 40.72734 | -73.69034 | 1896 ft | 152 kts | 216° |
| 2026-05-07 00:31 | 40.71863 | -73.69724 | 1652 ft | 140 kts | 215° |
| 2026-05-07 00:31 | 40.71082 | -73.70328 | 1483 ft | 128 kts | 216° |
| 2026-05-07 00:32 | 40.70315 | -73.70941 | 1328 ft | 133 kts | 215° |
| 2026-05-07 00:32 | 40.69514 | -73.71574 | 1152 ft | 134 kts | 214° |
| 2026-05-07 00:32 | 40.68972 | -73.71997 | 1060 ft | 135 kts | 214° |
| 2026-05-07 00:32 | 40.68361 | -73.72477 | 898 ft | 140 kts | 213° |
| 2026-05-07 00:33 | 40.67521 | -73.73137 | 708 ft | 139 kts | 211° |
| 2026-05-07 00:33 | 40.66676 | -73.73797 | 531 ft | 142 kts | 211° |
| 2026-05-07 00:33 | 40.65832 | -73.74465 | 356 ft | 141 kts | 210° |
| 2026-05-07 00:33 | 40.64991 | -73.75123 | 150 ft | 140 kts | 210° |
| 2026-05-07 00:34 | 40.64174 | -73.75759 | 23 ft | 129 kts | 210° |
| 2026-05-07 00:34 | 40.63583 | -73.76222 | 18 ft | 69 kts | 211° |
| 2026-05-07 00:34 | 40.63339 | -73.76437 | 18 ft | 30 kts | 226° |
| 2026-05-07 00:34 | 40.63241 | -73.76639 | 15 ft | 21 kts | 255° |
| 2026-05-07 00:35 | 40.63255 | -73.76754 | 15 ft | 10 kts | 300° |
| 2026-05-07 00:35 | 40.63299 | -73.76847 | 15 ft | 14 kts | 303° |
| 2026-05-07 00:35 | 40.63350 | -73.76962 | 15 ft | 16 kts | 300° |
| 2026-05-07 00:35 | 40.63415 | -73.77104 | 15 ft | 20 kts | 300° |
| 2026-05-07 00:36 | 40.63485 | -73.77261 | 15 ft | 20 kts | 301° |
| 2026-05-07 00:36 | 40.63553 | -73.77413 | 19 ft | 19 kts | 301° |
| 2026-05-07 00:36 | 40.63620 | -73.77562 | 16 ft | 20 kts | 303° |
| 2026-05-07 00:36 | 40.63678 | -73.77666 | 16 ft | 0 kts | 300° |